Time;durP1;ratioP1;P1;durP2;ratioP2;P2;SDS_P1;SDS_P2;PMS_P1;PMS_P2;Temp;Humidity;BMP_temperature;BMP_pressure;BME280_temperature;BME280_humidity;BME280_pressure;Samples;Min_cycle;Max_cycle;Signal;HPM_P1;HPM_P2
2021/01/08 00:02:21;;;;;;;4.22;3.92;;;18.40;58.20;;;;;;5074285;28;20034;-37
2021/01/08 00:04:47;;;;;;;4.13;3.83;;;18.40;58.30;;;;;;5073675;28;20108;-36
2021/01/08 00:07:12;;;;;;;3.80;3.50;;;18.40;58.30;;;;;;5073424;28;20036;-37
2021/01/08 00:09:38;;;;;;;3.47;3.28;;;18.30;58.30;;;;;;5073668;28;20047;-38
2021/01/08 00:12:05;;;;;;;3.88;3.58;;;18.40;58.20;;;;;;5074187;28;20111;-38
2021/01/08 00:14:30;;;;;;;3.95;3.65;;;18.40;58.20;;;;;;5073144;28;20541;-37
2021/01/08 00:16:56;;;;;;;3.70;3.50;;;18.40;58.20;;;;;;5071684;28;20028;-38
2021/01/08 00:19:22;;;;;;;3.80;3.60;;;18.40;58.20;;;;;;5072979;28;20075;-38
2021/01/08 00:21:47;;;;;;;3.67;3.47;;;18.30;58.30;;;;;;5073054;28;20028;-37
2021/01/08 00:24:13;;;;;;;3.53;3.33;;;18.30;58.20;;;;;;5073339;28;20051;-38
2021/01/08 00:26:39;;;;;;;3.67;3.47;;;18.30;58.30;;;;;;5075188;28;20078;-37
2021/01/08 00:29:06;;;;;;;4.30;3.95;;;18.30;58.30;;;;;;5071658;28;20766;-37
2021/01/08 00:31:36;;;;;;;3.42;3.20;;;18.30;58.30;;;;;;5073171;28;20028;-38
2021/01/08 00:34:02;;;;;;;3.85;3.58;;;18.30;58.30;;;;;;5073030;28;20032;-37
2021/01/08 00:36:27;;;;;;;3.42;3.22;;;18.30;58.30;;;;;;5073210;28;20029;-37
2021/01/08 00:38:53;;;;;;;3.53;3.30;;;18.30;58.40;;;;;;5074652;28;20028;-38
2021/01/08 00:41:28;;;;;;;3.55;3.35;;;18.30;58.40;;;;;;5073087;28;20488;-36
2021/01/08 00:43:53;;;;;;;3.72;3.47;;;18.20;58.30;;;;;;5071588;28;20035;-37
2021/01/08 00:46:19;;;;;;;3.42;3.13;;;18.20;58.40;;;;;;5073221;28;20017;-36
2021/01/08 00:48:44;;;;;;;3.45;3.25;;;18.20;58.40;;;;;;5073014;28;20059;-36
2021/01/08 00:51:10;;;;;;;3.20;2.90;;;18.10;58.50;;;;;;5073017;28;20488;-36
2021/01/08 00:53:35;;;;;;;3.28;3.08;;;18.10;58.60;;;;;;5073168;28;20135;-37
2021/01/08 00:56:01;;;;;;;3.28;3.05;;;18.10;58.70;;;;;;5070996;28;20024;-37
2021/01/08 00:58:26;;;;;;;3.55;3.35;;;18.20;58.60;;;;;;5072458;28;20529;-38
2021/01/08 01:00:52;;;;;;;2.85;2.75;;;18.20;58.60;;;;;;5073040;28;20020;-37
2021/01/08 01:03:18;;;;;;;3.50;3.30;;;18.20;58.50;;;;;;5072833;28;20115;-36
2021/01/08 01:05:43;;;;;;;3.25;3.05;;;18.20;58.40;;;;;;5074638;28;20530;-37
2021/01/08 01:08:09;;;;;;;2.80;2.60;;;18.20;58.20;;;;;;5072428;28;20055;-38
2021/01/08 01:10:35;;;;;;;3.45;3.17;;;18.20;58.20;;;;;;5072087;28;20037;-37
2021/01/08 01:13:00;;;;;;;3.00;2.70;;;18.20;58.20;;;;;;5072210;28;20442;-37
2021/01/08 01:15:26;;;;;;;3.15;2.95;;;18.20;58.80;;;;;;5072345;28;20040;-37
2021/01/08 01:17:51;;;;;;;3.55;3.35;;;18.20;58.20;;;;;;5074215;28;20105;-37
2021/01/08 01:20:17;;;;;;;2.90;2.70;;;18.20;58.10;;;;;;5070967;28;20043;-35
2021/01/08 01:22:42;;;;;;;2.90;2.70;;;18.20;58.20;;;;;;5072148;28;20137;-37
2021/01/08 01:25:08;;;;;;;2.67;2.53;;;18.20;58.10;;;;;;5071995;28;20024;-40
2021/01/08 01:27:38;;;;;;;3.40;2.97;;;18.20;58.20;;;;;;5072038;28;20023;-36
2021/01/08 01:30:08;;;;;;;2.83;2.67;;;18.10;58.20;;;;;;5073159;28;20032;-36
2021/01/08 01:32:33;;;;;;;2.80;2.70;;;18.10;58.20;;;;;;5072005;28;20035;-36
2021/01/08 01:34:59;;;;;;;3.30;3.10;;;18.10;58.20;;;;;;5070673;28;20036;-37
2021/01/08 01:37:24;;;;;;;3.05;2.85;;;18.10;58.20;;;;;;5071789;28;20110;-38
2021/01/08 01:39:50;;;;;;;2.97;2.78;;;18.10;58.40;;;;;;5071338;28;20090;-35
2021/01/08 01:42:15;;;;;;;3.15;2.95;;;18.10;58.30;;;;;;5070391;28;20032;-36
2021/01/08 01:44:41;;;;;;;2.45;2.25;;;18.10;58.20;;;;;;5073848;28;20467;-36
2021/01/08 01:47:06;;;;;;;3.20;3.00;;;18.10;58.30;;;;;;5069976;28;20032;-38
2021/01/08 01:49:32;;;;;;;3.00;2.80;;;18.10;58.20;;;;;;5071533;28;20028;-36
2021/01/08 01:51:58;;;;;;;2.78;2.67;;;18.10;58.20;;;;;;5071586;28;20434;-36
2021/01/08 01:54:24;;;;;;;2.78;2.60;;;18.10;58.30;;;;;;5070329;28;20056;-35
2021/01/08 01:56:49;;;;;;;3.13;2.92;;;18.10;58.30;;;;;;5072724;28;20524;-38
2021/01/08 01:59:15;;;;;;;2.75;2.65;;;18.10;58.30;;;;;;5069862;28;20042;-38
2021/01/08 02:01:40;;;;;;;2.70;2.60;;;18.10;58.30;;;;;;5071458;28;20419;-37
2021/01/08 02:04:06;;;;;;;3.10;2.90;;;18.10;58.40;;;;;;5053548;28;20040;-36
2021/01/08 02:06:36;;;;;;;2.90;2.80;;;18.10;58.30;;;;;;5053267;28;20052;-37
2021/01/08 02:09:06;;;;;;;3.00;2.80;;;18.10;58.30;;;;;;5071012;28;20035;-36
2021/01/08 02:11:32;;;;;;;2.63;2.42;;;18.10;58.20;;;;;;5053471;28;20020;-36
2021/01/08 02:14:07;;;;;;;2.92;2.72;;;18.10;58.20;;;;;;5052188;28;20081;-36
2021/01/08 02:16:37;;;;;;;3.00;2.80;;;18.10;58.40;;;;;;5071263;28;20025;-36
2021/01/08 02:19:05;;;;;;;2.50;2.40;;;18.10;58.50;;;;;;5070955;28;20392;-37
2021/01/08 02:21:41;;;;;;;2.70;2.60;;;18.10;58.50;;;;;;5069855;28;20044;-37
2021/01/08 02:24:39;;;;;;;2.60;2.50;;;18.00;58.40;;;;;;5069846;28;20032;-36
2021/01/08 02:27:05;;;;;;;2.72;2.63;;;18.10;58.50;;;;;;5007845;28;20089;-37
2021/01/08 02:29:30;;;;;;;2.70;2.50;;;18.10;58.50;;;;;;5010847;28;20037;-36
2021/01/08 02:31:56;;;;;;;2.97;2.78;;;18.00;58.40;;;;;;4975259;28;20041;-36
2021/01/08 02:34:23;;;;;;;2.70;2.55;;;18.00;58.40;;;;;;4992706;28;20034;-37
2021/01/08 02:36:48;;;;;;;2.80;2.70;;;18.00;58.40;;;;;;4992729;28;20037;-35
2021/01/08 02:39:14;;;;;;;2.70;2.60;;;18.00;58.40;;;;;;4992404;28;20046;-36
2021/01/08 02:41:43;;;;;;;2.85;2.75;;;18.10;58.50;;;;;;5010994;28;20445;-37
2021/01/08 02:44:11;;;;;;;2.63;2.53;;;18.00;58.50;;;;;;5009113;28;20050;-36
2021/01/08 02:46:37;;;;;;;2.70;2.60;;;18.00;58.50;;;;;;5009084;28;20026;-36
2021/01/08 02:49:02;;;;;;;2.72;2.53;;;18.00;58.50;;;;;;5007686;28;20045;-38
2021/01/08 02:51:28;;;;;;;2.78;2.58;;;18.00;58.40;;;;;;4992324;28;20108;-36
2021/01/08 02:53:54;;;;;;;2.97;2.88;;;18.00;58.50;;;;;;4991233;28;20041;-39
2021/01/08 02:56:24;;;;;;;2.78;2.67;;;18.00;58.50;;;;;;4993002;28;20030;-37
2021/01/08 02:58:49;;;;;;;2.90;2.70;;;17.90;58.40;;;;;;5004651;28;20049;-37
2021/01/08 03:01:15;;;;;;;3.42;3.22;;;18.00;58.50;;;;;;4991092;28;20030;-37
2021/01/08 03:03:40;;;;;;;2.78;2.67;;;17.90;58.60;;;;;;5058006;28;20047;-36
2021/01/08 03:06:06;;;;;;;2.85;2.65;;;18.00;58.60;;;;;;5069405;28;20043;-40
2021/01/08 03:08:32;;;;;;;2.90;2.80;;;17.90;58.60;;;;;;5051164;28;20029;-36
2021/01/08 03:10:58;;;;;;;2.53;2.40;;;17.90;58.60;;;;;;5066372;28;20028;-38
2021/01/08 03:13:24;;;;;;;2.92;2.72;;;17.90;58.70;;;;;;5068369;28;20020;-37
2021/01/08 03:15:49;;;;;;;3.15;2.95;;;17.90;58.70;;;;;;5069227;28;20103;-36
2021/01/08 03:18:15;;;;;;;2.58;2.47;;;17.90;59.20;;;;;;5069057;28;20041;-36
2021/01/08 03:20:40;;;;;;;2.45;2.35;;;17.90;58.60;;;;;;5071930;28;20028;-36
2021/01/08 03:23:07;;;;;;;2.80;2.60;;;17.90;58.60;;;;;;5068886;28;20488;-36
2021/01/08 03:25:33;;;;;;;2.70;2.60;;;17.90;58.60;;;;;;5070080;28;20024;-37
2021/01/08 03:27:59;;;;;;;3.03;2.83;;;17.90;58.60;;;;;;5068916;28;20036;-37
2021/01/08 03:30:24;;;;;;;3.38;3.17;;;17.90;58.60;;;;;;5069026;28;20028;-39
2021/01/08 03:32:50;;;;;;;3.05;2.85;;;17.90;58.50;;;;;;5072084;28;20039;-36
2021/01/08 03:35:15;;;;;;;3.17;2.97;;;17.90;58.40;;;;;;5072003;28;20036;-37
2021/01/08 03:37:41;;;;;;;3.20;2.85;;;17.90;58.40;;;;;;5074224;28;20569;-36
2021/01/08 03:40:07;;;;;;;2.65;2.55;;;17.90;58.50;;;;;;5073933;28;20082;-35
2021/01/08 03:42:33;;;;;;;2.72;2.53;;;17.90;58.50;;;;;;5072651;28;20021;-35
2021/01/08 03:44:59;;;;;;;2.45;2.35;;;17.90;58.40;;;;;;5075694;28;20064;-35
2021/01/08 03:47:24;;;;;;;2.45;2.35;;;17.90;58.40;;;;;;5074726;28;20515;-35
2021/01/08 03:49:50;;;;;;;2.72;2.53;;;17.90;58.40;;;;;;5073753;28;20115;-35
2021/01/08 03:52:15;;;;;;;2.63;2.47;;;17.90;58.40;;;;;;5072633;28;20170;-35
2021/01/08 03:54:41;;;;;;;2.47;2.38;;;17.90;58.40;;;;;;5073986;28;20025;-36
2021/01/08 03:57:06;;;;;;;2.50;2.40;;;17.90;58.60;;;;;;5074309;28;20020;-34
2021/01/08 03:59:32;;;;;;;2.85;2.75;;;17.90;58.50;;;;;;5074435;28;20032;-36
2021/01/08 04:01:57;;;;;;;2.70;2.60;;;17.90;58.60;;;;;;5071421;28;20032;-38
2021/01/08 04:04:23;;;;;;;2.80;2.60;;;17.80;58.40;;;;;;5072708;28;20029;-38
2021/01/08 04:06:50;;;;;;;2.83;2.63;;;17.80;58.60;;;;;;5070732;28;20025;-40
2021/01/08 04:09:17;;;;;;;3.10;2.90;;;17.80;58.40;;;;;;5073483;28;20025;-36
2021/01/08 04:11:42;;;;;;;2.88;2.67;;;17.80;58.40;;;;;;5074345;28;20016;-38
2021/01/08 04:14:08;;;;;;;2.33;2.22;;;17.80;58.20;;;;;;5073307;28;20510;-39
2021/01/08 04:16:34;;;;;;;2.85;2.65;;;17.80;58.30;;;;;;5073153;28;20032;-37
2021/01/08 04:18:59;;;;;;;2.55;2.45;;;17.80;58.30;;;;;;5071539;28;20071;-38
2021/01/08 04:21:25;;;;;;;2.50;2.30;;;17.80;58.40;;;;;;5073354;28;20461;-36
2021/01/08 04:23:51;;;;;;;2.85;2.65;;;17.80;58.30;;;;;;5074759;28;20043;-36
2021/01/08 04:26:16;;;;;;;2.63;2.53;;;17.80;58.30;;;;;;5072901;28;20033;-36
2021/01/08 04:28:42;;;;;;;2.75;2.65;;;17.80;58.40;;;;;;5073285;28;20503;-36
2021/01/08 04:31:07;;;;;;;3.10;3.00;;;17.80;58.40;;;;;;5073043;28;20103;-39
2021/01/08 04:33:33;;;;;;;2.80;2.60;;;17.80;58.70;;;;;;5072461;28;20032;-38
2021/01/08 04:35:58;;;;;;;2.95;2.85;;;17.80;58.30;;;;;;5074287;28;20484;-38
2021/01/08 04:38:24;;;;;;;2.85;2.65;;;17.80;58.40;;;;;;5073707;28;20040;-36
2021/01/08 04:40:49;;;;;;;2.80;2.70;;;17.80;58.30;;;;;;5072302;28;20037;-38
2021/01/08 04:43:15;;;;;;;2.90;2.70;;;17.80;58.40;;;;;;5072379;28;20060;-37
2021/01/08 04:45:41;;;;;;;2.30;2.20;;;17.80;58.40;;;;;;5069885;28;20029;-38
2021/01/08 04:48:07;;;;;;;2.75;2.65;;;17.80;58.20;;;;;;5072080;28;20025;-36
2021/01/08 04:50:32;;;;;;;2.72;2.53;;;17.80;58.70;;;;;;5054773;28;20024;-36
2021/01/08 04:52:58;;;;;;;2.80;2.70;;;17.80;58.70;;;;;;5072428;28;20048;-38
2021/01/08 04:55:24;;;;;;;3.20;3.00;;;17.70;59.40;;;;;;5072099;28;20030;-37
2021/01/08 04:57:50;;;;;;;2.75;2.42;;;17.70;58.80;;;;;;5056760;28;20104;-38
2021/01/08 05:00:16;;;;;;;2.53;2.42;;;17.70;58.80;;;;;;5070856;28;20047;-36
2021/01/08 05:02:42;;;;;;;2.25;2.15;;;17.70;58.90;;;;;;5072177;28;20037;-38
2021/01/08 05:05:08;;;;;;;2.55;2.45;;;17.70;58.50;;;;;;5074142;28;20024;-36
2021/01/08 05:07:34;;;;;;;3.05;2.85;;;17.80;58.70;;;;;;5074003;28;20056;-36
2021/01/08 05:10:01;;;;;;;2.88;2.67;;;17.70;58.50;;;;;;5072408;28;20062;-38
2021/01/08 05:12:43;;;;;;;2.70;2.60;;;17.70;58.60;;;;;;5071269;28;20061;-36
2021/01/08 05:15:12;;;;;;;2.70;2.50;;;17.70;58.70;;;;;;5072151;28;20366;-40
2021/01/08 05:17:41;;;;;;;2.75;2.60;;;17.70;58.40;;;;;;5072871;28;20041;-38
2021/01/08 05:20:07;;;;;;;2.72;2.63;;;17.70;58.70;;;;;;5068857;28;20040;-36
2021/01/08 05:22:33;;;;;;;2.75;2.65;;;17.70;58.50;;;;;;5072102;28;20487;-36
2021/01/08 05:25:09;;;;;;;2.47;2.38;;;17.70;58.40;;;;;;5070186;28;20158;-38
2021/01/08 05:27:35;;;;;;;2.90;2.80;;;17.70;58.20;;;;;;5070843;28;20115;-36
2021/01/08 05:30:17;;;;;;;2.90;2.70;;;17.70;58.20;;;;;;5072225;28;20104;-36
2021/01/08 05:32:43;;;;;;;2.78;2.67;;;17.60;58.30;;;;;;5072897;28;20043;-37
2021/01/08 05:35:15;;;;;;;3.30;3.10;;;17.70;58.10;;;;;;5072027;28;20025;-36
2021/01/08 05:37:45;;;;;;;3.03;2.80;;;17.60;58.20;;;;;;5071565;28;20526;-36
2021/01/08 05:40:11;;;;;;;3.08;2.88;;;17.60;58.30;;;;;;5069758;28;20032;-36
2021/01/08 05:43:00;;;;;;;3.33;2.85;;;17.60;58.50;;;;;;5070149;28;20392;-36
2021/01/08 05:45:27;;;;;;;4.30;3.90;;;17.60;58.60;;;;;;5067669;28;20028;-38
2021/01/08 05:47:58;;;;;;;4.10;3.67;;;17.60;58.60;;;;;;5074128;28;20021;-36
2021/01/08 05:50:25;;;;;;;5.00;3.33;;;17.60;58.60;;;;;;5068878;28;20073;-38
2021/01/08 05:53:03;;;;;;;5.63;3.90;;;17.60;58.40;;;;;;5071080;28;20029;-38
2021/01/08 05:55:28;;;;;;;5.43;4.18;;;17.60;58.30;;;;;;5071453;28;20495;-36
2021/01/08 05:57:54;;;;;;;9.32;6.57;;;17.60;58.30;;;;;;5069258;28;20031;-40
2021/01/08 06:00:21;;;;;;;13.43;7.18;;;17.70;58.30;;;;;;5070387;28;20028;-38
2021/01/08 06:02:48;;;;;;;9.77;6.65;;;17.60;58.90;;;;;;5073174;28;20028;-38
2021/01/08 06:05:13;;;;;;;11.50;6.63;;;17.60;58.20;;;;;;5070088;28;20032;-37
2021/01/08 06:07:39;;;;;;;8.68;6.72;;;17.70;58.10;;;;;;5068368;28;20051;-38
2021/01/08 06:10:06;;;;;;;9.15;6.65;;;17.70;58.00;;;;;;5052489;28;20039;-37
2021/01/08 06:12:38;;;;;;;7.80;6.47;;;17.70;58.00;;;;;;5071255;28;20029;-36
2021/01/08 06:15:10;;;;;;;7.32;6.47;;;17.70;57.90;;;;;;5070036;28;20038;-36
2021/01/08 06:17:38;;;;;;;6.70;6.07;;;17.70;57.80;;;;;;5071296;28;20032;-38
2021/01/08 06:20:04;;;;;;;8.02;5.65;;;17.70;57.90;;;;;;5069266;28;20039;-40
2021/01/08 06:22:37;;;;;;;7.25;6.18;;;17.70;57.90;;;;;;5069716;28;20027;-36
2021/01/08 06:25:04;;;;;;;10.43;6.93;;;17.70;57.80;;;;;;5070158;28;20032;-37
2021/01/08 06:27:31;;;;;;;7.55;6.38;;;17.70;58.00;;;;;;5070845;28;20051;-33
2021/01/08 06:30:00;;;;;;;5.97;5.50;;;17.70;57.90;;;;;;5071501;28;20017;-36
2021/01/08 06:32:28;;;;;;;5.72;5.22;;;17.70;58.40;;;;;;5072124;28;20032;-36
2021/01/08 06:34:53;;;;;;;5.13;4.72;;;17.80;57.70;;;;;;5070791;28;20442;-36
2021/01/08 06:37:21;;;;;;;5.28;4.85;;;17.80;57.80;;;;;;5053044;28;20028;-36
2021/01/08 06:39:47;;;;;;;5.25;4.85;;;17.80;58.50;;;;;;5053307;28;20035;-38
2021/01/08 06:42:25;;;;;;;5.65;5.10;;;17.80;57.90;;;;;;5069960;28;20032;-37
2021/01/08 06:44:51;;;;;;;5.25;4.55;;;17.80;57.80;;;;;;5068825;28;20169;-37
2021/01/08 06:47:17;;;;;;;5.82;5.15;;;17.80;58.60;;;;;;5067828;28;20529;-35
2021/01/08 06:49:45;;;;;;;7.45;5.10;;;17.80;58.00;;;;;;5069456;28;20163;-37
2021/01/08 06:52:14;;;;;;;5.53;5.13;;;17.80;58.10;;;;;;5070424;28;20036;-37
2021/01/08 06:54:39;;;;;;;6.00;4.97;;;17.80;58.20;;;;;;5070448;28;20427;-37
2021/01/08 06:57:05;;;;;;;5.28;4.72;;;17.70;58.10;;;;;;5067076;28;20020;-35
2021/01/08 06:59:32;;;;;;;10.40;6.93;;;17.70;58.20;;;;;;5067295;28;20032;-37
2021/01/08 07:02:09;;;;;;;5.20;4.70;;;17.70;58.40;;;;;;5069158;28;20051;-36
2021/01/08 07:04:36;;;;;;;6.25;5.65;;;17.60;58.50;;;;;;5064460;28;20031;-36
2021/01/08 07:07:03;;;;;;;6.00;5.45;;;17.50;58.70;;;;;;5069088;28;20021;-37
2021/01/08 07:09:35;;;;;;;6.38;5.72;;;17.50;58.80;;;;;;5069870;28;20056;-35
2021/01/08 07:12:02;;;;;;;5.97;5.38;;;17.50;59.80;;;;;;5070187;28;20031;-35
2021/01/08 07:14:27;;;;;;;6.10;5.38;;;17.40;59.40;;;;;;5069807;28;20527;-37
2021/01/08 07:16:54;;;;;;;6.82;5.75;;;17.40;59.70;;;;;;5065810;28;20037;-36
2021/01/08 07:19:24;;;;;;;7.95;6.18;;;17.50;59.80;;;;;;5055234;28;20059;-33
2021/01/08 07:21:54;;;;;;;6.28;5.68;;;17.50;59.40;;;;;;5058686;28;21553;-36
2021/01/08 07:24:40;;;;;;;6.93;5.35;;;17.50;59.20;;;;;;5058567;28;20036;-39
2021/01/08 07:27:15;;;;;;;6.20;5.55;;;17.40;59.20;;;;;;5057894;28;20040;-35
2021/01/08 07:30:10;;;;;;;4.75;4.43;;;17.50;59.20;;;;;;5059103;28;20408;-32
2021/01/08 07:32:39;;;;;;;;;;;17.50;59.10;;;;;;5056726;28;20070;-34
2021/01/08 07:35:26;;;;;;;6.57;5.75;;;17.50;59.10;;;;;;5059518;28;19912;-43
2021/01/08 07:38:08;;;;;;;5.70;5.20;;;17.50;59.10;;;;;;5057572;28;20040;-37
2021/01/08 07:40:35;;;;;;;4.88;4.47;;;17.50;58.80;;;;;;5057993;28;20440;-37
2021/01/08 07:43:08;;;;;;;5.47;4.70;;;17.50;58.80;;;;;;5057636;28;20033;-37
2021/01/08 07:45:53;;;;;;;5.85;5.20;;;17.50;58.80;;;;;;5058795;28;20044;-35
2021/01/08 07:48:23;;;;;;;8.10;4.95;;;17.50;58.80;;;;;;5058827;28;20929;-40
2021/01/08 07:50:57;;;;;;;4.93;4.63;;;17.50;58.90;;;;;;5057386;28;20028;-36
2021/01/08 07:53:41;;;;;;;;;;;17.50;59.00;;;;;;5056898;28;20039;-41
2021/01/08 07:56:20;;;;;;;4.80;4.38;;;17.50;58.70;;;;;;5056607;28;20276;-41
2021/01/08 07:59:07;;;;;;;5.35;4.95;;;17.50;58.80;;;;;;5056863;28;20105;-37
2021/01/08 08:01:36;;;;;;;5.43;4.93;;;17.50;58.60;;;;;;5056336;28;20128;-31
2021/01/08 08:04:05;;;;;;;5.28;4.88;;;17.50;58.70;;;;;;5057391;28;20111;-33
2021/01/08 08:06:32;;;;;;;4.72;4.43;;;17.50;58.70;;;;;;5057130;28;20066;-33
2021/01/08 08:09:05;;;;;;;4.72;4.22;;;17.50;58.70;;;;;;5057108;28;20501;-43
2021/01/08 08:11:33;;;;;;;4.90;4.60;;;17.50;58.70;;;;;;5057914;28;20063;-38
2021/01/08 08:13:59;;;;;;;4.85;4.45;;;17.40;58.70;;;;;;5057972;28;20393;-38
2021/01/08 08:16:34;;;;;;;5.45;5.05;;;17.50;58.80;;;;;;5058511;28;20909;-39
2021/01/08 08:19:00;;;;;;;5.35;4.85;;;17.50;58.60;;;;;;5056717;28;20048;-40
2021/01/08 08:21:25;;;;;;;5.57;5.18;;;17.50;58.50;;;;;;5058680;28;20037;-36
2021/01/08 08:23:54;;;;;;;6.05;5.55;;;17.40;58.40;;;;;;5061962;28;20020;-37
2021/01/08 08:26:20;;;;;;;5.57;5.28;;;17.50;58.60;;;;;;5062927;28;20040;-39
2021/01/08 08:29:07;;;;;;;6.60;6.00;;;17.50;58.70;;;;;;5061255;28;20043;-32
2021/01/08 08:31:37;;;;;;;6.00;5.60;;;17.40;58.50;;;;;;5061963;28;21341;-39
2021/01/08 08:34:04;;;;;;;6.00;5.47;;;17.40;58.80;;;;;;5059625;28;20549;-37
2021/01/08 08:36:31;;;;;;;6.00;5.60;;;17.40;58.80;;;;;;5062253;28;20036;-39
2021/01/08 08:39:02;;;;;;;6.07;5.68;;;17.40;58.80;;;;;;5061788;28;20044;-39
2021/01/08 08:41:28;;;;;;;6.43;5.78;;;17.40;58.90;;;;;;5061561;28;20588;-34
2021/01/08 08:44:07;;;;;;;5.47;5.07;;;17.40;58.80;;;;;;5061219;28;20043;-39
2021/01/08 08:46:41;;;;;;;5.50;5.10;;;17.40;58.80;;;;;;5061334;28;20039;-40
2021/01/08 08:49:07;;;;;;;5.60;5.20;;;17.40;59.00;;;;;;5060943;28;20058;-42
2021/01/08 08:51:33;;;;;;;5.82;5.43;;;17.40;58.90;;;;;;5060209;28;20086;-37
2021/01/08 08:53:59;;;;;;;5.10;4.70;;;17.40;59.00;;;;;;5060776;28;20055;-40
2021/01/08 08:56:25;;;;;;;5.93;5.53;;;17.40;59.50;;;;;;5061841;28;20078;-34
2021/01/08 08:58:50;;;;;;;5.15;4.85;;;17.40;59.00;;;;;;5059996;28;20045;-38
2021/01/08 09:01:16;;;;;;;5.30;4.90;;;17.40;59.10;;;;;;5060867;28;20029;-33
2021/01/08 09:03:41;;;;;;;4.95;4.65;;;17.40;59.00;;;;;;5060238;28;20033;-35
2021/01/08 09:06:10;;;;;;;5.25;4.93;;;17.40;58.90;;;;;;5061496;28;20058;-34
2021/01/08 09:08:36;;;;;;;5.10;4.80;;;17.40;59.00;;;;;;5061119;28;20470;-40
2021/01/08 09:11:25;;;;;;;5.03;4.63;;;17.40;58.90;;;;;;5043100;28;20043;-38
2021/01/08 09:13:58;;;;;;;5.55;5.07;;;17.40;58.80;;;;;;5060263;28;20066;-40
2021/01/08 09:16:25;;;;;;;5.07;4.68;;;17.40;58.90;;;;;;5060864;28;20662;-40
2021/01/08 09:19:20;;;;;;;4.50;4.07;;;17.50;58.80;;;;;;5059021;28;20049;-39
2021/01/08 09:21:50;;;;;;;5.63;5.22;;;17.50;58.40;;;;;;5053872;28;20436;-40
2021/01/08 09:24:23;;;;;;;4.65;4.38;;;17.60;58.70;;;;;;5076119;28;20105;-37
2021/01/08 09:26:49;;;;;;;5.85;5.38;;;17.60;58.30;;;;;;5070474;28;20040;-38
2021/01/08 09:29:29;;;;;;;5.50;5.10;;;17.60;58.20;;;;;;5066754;28;20048;-40
2021/01/08 09:31:55;;;;;;;5.47;5.07;;;17.60;58.50;;;;;;5067556;28;20053;-40
2021/01/08 09:34:23;;;;;;;6.38;5.28;;;17.60;58.30;;;;;;5059180;28;20489;-39
2021/01/08 09:36:48;;;;;;;5.00;4.70;;;17.60;58.90;;;;;;5068249;28;20036;-37
2021/01/08 09:39:14;;;;;;;4.78;4.47;;;17.60;58.90;;;;;;5060298;28;20444;-40
2021/01/08 09:41:41;;;;;;;5.00;4.60;;;17.70;58.70;;;;;;5047712;28;20489;-41
2021/01/08 09:44:10;;;;;;;5.93;5.43;;;17.70;58.80;;;;;;5061219;28;20048;-40
2021/01/08 09:46:58;;;;;;;5.90;5.32;;;17.70;59.20;;;;;;5067059;28;20049;-40
2021/01/08 09:49:24;;;;;;;5.35;5.00;;;17.70;59.20;;;;;;5063486;28;20127;-41
2021/01/08 09:52:00;;;;;;;5.25;4.85;;;17.70;59.20;;;;;;5064771;28;20177;-40
2021/01/08 09:54:41;;;;;;;5.07;4.78;;;17.70;59.40;;;;;;5066231;28;20551;-38
2021/01/08 09:57:07;;;;;;;5.75;5.28;;;17.70;59.30;;;;;;5067981;28;20044;-40
2021/01/08 09:59:32;;;;;;;5.32;4.82;;;17.70;59.40;;;;;;5053911;28;20064;-41
2021/01/08 10:02:06;;;;;;;5.72;5.32;;;17.70;59.40;;;;;;5064055;28;20048;-41
2021/01/08 10:04:32;;;;;;;;;;;17.70;59.40;;;;;;5063972;28;20072;-34
2021/01/08 10:07:02;;;;;;;4.80;4.50;;;17.70;59.40;;;;;;5068425;28;20368;-37
2021/01/08 10:09:46;;;;;;;5.15;4.75;;;17.70;59.00;;;;;;5069051;28;20487;-41
2021/01/08 10:12:11;;;;;;;5.23;4.93;;;17.70;59.20;;;;;;5066952;28;20021;-42
2021/01/08 10:14:37;;;;;;;5.20;4.90;;;17.70;58.90;;;;;;5069667;28;20270;-41
2021/01/08 10:17:13;;;;;;;4.97;4.68;;;17.70;58.80;;;;;;5066642;28;20031;-39
2021/01/08 10:19:39;;;;;;;5.32;4.93;;;17.70;58.70;;;;;;5069375;28;20488;-39
2021/01/08 10:22:05;;;;;;;4.75;4.45;;;17.70;58.60;;;;;;5068878;28;20027;-40
2021/01/08 10:24:31;;;;;;;5.63;5.18;;;17.70;58.70;;;;;;5069062;28;20036;-38
2021/01/08 10:26:56;;;;;;;5.60;5.20;;;17.70;59.00;;;;;;5070217;28;20491;-41
2021/01/08 10:29:38;;;;;;;5.65;5.35;;;17.70;59.10;;;;;;5067458;28;20032;-38
2021/01/08 10:32:08;;;;;;;5.05;4.75;;;17.70;59.00;;;;;;5063250;28;21069;-38
2021/01/08 10:34:41;;;;;;;6.10;5.60;;;17.70;59.00;;;;;;5063299;28;20086;-38
2021/01/08 10:37:17;;;;;;;5.72;5.32;;;17.70;58.40;;;;;;5063363;28;20059;-41
2021/01/08 10:39:43;;;;;;;6.75;6.07;;;17.70;58.90;;;;;;5065513;28;20128;-39
2021/01/08 10:42:09;;;;;;;7.32;6.72;;;17.70;58.90;;;;;;5065614;28;20045;-37
2021/01/08 10:44:35;;;;;;;6.30;5.70;;;17.60;59.00;;;;;;4708015;28;10000414;-37
2021/01/08 10:47:01;;;;;;;6.70;6.10;;;17.60;59.20;;;;;;5054968;28;20040;-42
2021/01/08 10:49:27;;;;;;;7.00;6.40;;;17.60;58.20;;;;;;5062805;28;20431;-40
2021/01/08 10:51:52;;;;;;;7.25;6.55;;;17.60;57.90;;;;;;5062395;28;20049;-42
2021/01/08 10:54:18;;;;;;;7.45;6.90;;;17.70;57.70;;;;;;5064454;28;20025;-41
2021/01/08 10:56:44;;;;;;;7.63;6.95;;;17.70;57.20;;;;;;5066014;28;20044;-44
2021/01/08 10:59:11;;;;;;;7.60;6.82;;;17.70;57.30;;;;;;5062674;28;20037;-41
2021/01/08 11:01:41;;;;;;;7.93;6.35;;;17.80;57.60;;;;;;5061587;28;20047;-39
2021/01/08 11:04:07;;;;;;;7.85;7.15;;;17.80;57.40;;;;;;5063661;28;20064;-40
2021/01/08 11:06:32;;;;;;;7.05;6.43;;;17.80;57.90;;;;;;5063910;28;20059;-47
2021/01/08 11:08:58;;;;;;;6.90;6.30;;;17.70;57.90;;;;;;5065483;28;20050;-38
2021/01/08 11:11:24;;;;;;;6.60;6.07;;;17.70;57.50;;;;;;5062991;28;20561;-40
2021/01/08 11:13:49;;;;;;;7.47;6.78;;;17.80;57.60;;;;;;5062118;28;20059;-39
2021/01/08 11:16:15;;;;;;;6.88;6.38;;;17.80;57.50;;;;;;5060674;28;20229;-39
2021/01/08 11:18:41;;;;;;;8.00;7.18;;;17.80;57.50;;;;;;5064362;28;20381;-41
2021/01/08 11:21:06;;;;;;;7.18;6.47;;;17.80;57.80;;;;;;5064486;28;20504;-44
2021/01/08 11:23:32;;;;;;;7.82;7.03;;;17.80;57.60;;;;;;5064007;28;20035;-39
2021/01/08 11:25:58;;;;;;;7.45;6.78;;;17.80;57.60;;;;;;5064293;28;20549;-38
2021/01/08 11:28:23;;;;;;;7.53;6.75;;;17.80;57.60;;;;;;5060989;28;20048;-40
2021/01/08 11:30:49;;;;;;;8.00;7.30;;;17.80;57.70;;;;;;5061633;28;20645;-43
2021/01/08 11:33:15;;;;;;;7.10;6.38;;;17.80;58.00;;;;;;5060279;28;20059;-38
2021/01/08 11:35:40;;;;;;;7.05;6.35;;;17.80;58.40;;;;;;5062799;28;20024;-38
2021/01/08 11:38:06;;;;;;;7.43;6.72;;;17.80;58.50;;;;;;5061178;28;20516;-38
2021/01/08 11:40:31;;;;;;;7.93;7.00;;;17.70;58.70;;;;;;5059351;28;20075;-37
2021/01/08 11:42:57;;;;;;;7.88;6.93;;;17.70;58.80;;;;;;5062389;28;20039;-39
2021/01/08 11:45:22;;;;;;;7.30;6.65;;;17.60;58.90;;;;;;5060740;28;20145;-38
2021/01/08 11:47:48;;;;;;;7.80;6.78;;;17.70;58.90;;;;;;5058451;28;20035;-39
2021/01/08 11:50:14;;;;;;;7.97;7.25;;;17.60;58.90;;;;;;5061743;28;20032;-41
2021/01/08 11:52:39;;;;;;;7.72;6.97;;;17.60;58.90;;;;;;5060188;28;20056;-38
2021/01/08 11:55:06;;;;;;;6.18;5.68;;;17.60;58.90;;;;;;5061273;28;20037;-38
2021/01/08 11:57:31;;;;;;;7.38;6.50;;;17.70;59.10;;;;;;5067337;28;20025;-38
2021/01/08 11:59:57;;;;;;;7.97;7.25;;;17.70;59.10;;;;;;5063341;28;20670;-41
2021/01/08 12:02:22;;;;;;;7.78;7.07;;;17.70;59.20;;;;;;5067903;28;20036;-39
2021/01/08 12:04:48;;;;;;;8.93;6.70;;;17.70;59.30;;;;;;5066690;28;20119;-39
2021/01/08 12:07:14;;;;;;;7.20;6.50;;;17.70;59.20;;;;;;5066996;28;20028;-39
2021/01/08 12:09:39;;;;;;;7.55;6.38;;;17.70;59.30;;;;;;5075092;28;20025;-42
2021/01/08 12:12:06;;;;;;;6.45;5.88;;;17.70;59.40;;;;;;5068511;28;20035;-39
2021/01/08 12:14:32;;;;;;;6.90;6.30;;;17.70;59.40;;;;;;5067379;28;20024;-37
2021/01/08 12:17:04;;;;;;;5.85;5.35;;;17.70;59.40;;;;;;5064034;28;20034;-39
2021/01/08 12:19:30;;;;;;;7.05;5.75;;;17.80;59.40;;;;;;5061876;28;20062;-39
2021/01/08 12:21:56;;;;;;;7.00;6.32;;;17.80;59.30;;;;;;5066081;28;20017;-39
2021/01/08 12:24:22;;;;;;;6.80;5.93;;;17.80;59.30;;;;;;5066621;28;20118;-38
2021/01/08 12:26:52;;;;;;;8.50;7.70;;;17.80;59.20;;;;;;5068394;28;20082;-38
2021/01/08 12:29:17;;;;;;;7.18;6.60;;;17.80;59.20;;;;;;5065687;28;20502;-40
2021/01/08 12:31:43;;;;;;;6.60;6.10;;;17.90;59.10;;;;;;5060549;28;20028;-42
2021/01/08 12:34:09;;;;;;;6.93;6.32;;;17.90;59.10;;;;;;5066473;28;20055;-39
2021/01/08 12:36:34;;;;;;;5.93;5.45;;;17.90;59.00;;;;;;5063068;28;20078;-40
2021/01/08 12:39:01;;;;;;;6.63;6.03;;;17.90;59.00;;;;;;5064825;28;20534;-38
2021/01/08 12:41:28;;;;;;;6.43;5.93;;;17.90;59.00;;;;;;5066555;28;20065;-39
2021/01/08 12:43:54;;;;;;;7.38;6.78;;;17.90;59.00;;;;;;5062223;28;20074;-39
2021/01/08 12:46:20;;;;;;;6.28;5.88;;;18.00;58.90;;;;;;5049694;28;20532;-40
2021/01/08 12:48:45;;;;;;;5.85;5.45;;;18.00;58.80;;;;;;5064565;28;20346;-39
2021/01/08 12:51:11;;;;;;;7.93;7.22;;;18.00;58.90;;;;;;5065553;28;20035;-40
2021/01/08 12:53:36;;;;;;;6.70;6.10;;;18.00;58.90;;;;;;5069550;28;20112;-40